sensor_id;sensor_type;location;lat;lon;timestamp;temperature;humidity
25058;DHT22;13057;50.978;11.034;2022-09-03T00:00:40;16.80;79.00
25058;DHT22;13057;50.978;11.034;2022-09-03T00:03:20;16.80;79.20
25058;DHT22;13057;50.978;11.034;2022-09-03T00:05:52;16.80;79.10
25058;DHT22;13057;50.978;11.034;2022-09-03T00:08:31;16.80;79.10
25058;DHT22;13057;50.978;11.034;2022-09-03T00:13:46;16.70;79.30
25058;DHT22;13057;50.978;11.034;2022-09-03T00:16:17;16.70;79.40
25058;DHT22;13057;50.978;11.034;2022-09-03T00:18:51;16.70;79.30
25058;DHT22;13057;50.978;11.034;2022-09-03T00:21:34;16.70;79.40
25058;DHT22;13057;50.978;11.034;2022-09-03T00:24:04;16.70;79.50
25058;DHT22;13057;50.978;11.034;2022-09-03T00:26:33;16.70;80.30
25058;DHT22;13057;50.978;11.034;2022-09-03T00:29:13;16.70;79.70
25058;DHT22;13057;50.978;11.034;2022-09-03T00:31:44;16.60;79.80
25058;DHT22;13057;50.978;11.034;2022-09-03T00:34:22;16.70;79.80
25058;DHT22;13057;50.978;11.034;2022-09-03T00:36:52;16.70;79.80
25058;DHT22;13057;50.978;11.034;2022-09-03T00:39:26;16.60;79.70
25058;DHT22;13057;50.978;11.034;2022-09-03T00:42:09;16.60;79.80
25058;DHT22;13057;50.978;11.034;2022-09-03T00:45:02;16.60;79.80
25058;DHT22;13057;50.978;11.034;2022-09-03T00:47:48;16.60;79.90
25058;DHT22;13057;50.978;11.034;2022-09-03T00:50:34;16.60;80.10
25058;DHT22;13057;50.978;11.034;2022-09-03T00:56:07;16.60;80.10
25058;DHT22;13057;50.978;11.034;2022-09-03T01:01:37;16.50;80.00
25058;DHT22;13057;50.978;11.034;2022-09-03T01:04:21;16.50;80.10
25058;DHT22;13057;50.978;11.034;2022-09-03T01:07:11;16.50;80.30
25058;DHT22;13057;50.978;11.034;2022-09-03T01:09:52;16.50;80.40
25058;DHT22;13057;50.978;11.034;2022-09-03T01:12:31;16.50;80.50
25058;DHT22;13057;50.978;11.034;2022-09-03T01:15:12;16.50;80.50
25058;DHT22;13057;50.978;11.034;2022-09-03T01:17:50;16.40;80.70
25058;DHT22;13057;50.978;11.034;2022-09-03T01:20:32;16.40;80.80
25058;DHT22;13057;50.978;11.034;2022-09-03T01:23:22;16.40;80.80
25058;DHT22;13057;50.978;11.034;2022-09-03T01:29:09;16.30;81.20
25058;DHT22;13057;50.978;11.034;2022-09-03T01:31:49;16.30;81.30
25058;DHT22;13057;50.978;11.034;2022-09-03T01:34:37;16.30;81.40
25058;DHT22;13057;50.978;11.034;2022-09-03T01:37:20;16.20;81.30
25058;DHT22;13057;50.978;11.034;2022-09-03T01:40:02;16.20;81.60
25058;DHT22;13057;50.978;11.034;2022-09-03T01:42:47;16.20;81.80
25058;DHT22;13057;50.978;11.034;2022-09-03T01:45:35;16.10;82.00
25058;DHT22;13057;50.978;11.034;2022-09-03T01:48:22;16.10;82.20
25058;DHT22;13057;50.978;11.034;2022-09-03T01:54:01;15.90;82.80
25058;DHT22;13057;50.978;11.034;2022-09-03T01:59:41;15.80;83.30
25058;DHT22;13057;50.978;11.034;2022-09-03T02:02:17;15.80;84.40
25058;DHT22;13057;50.978;11.034;2022-09-03T02:04:59;15.80;83.50
25058;DHT22;13057;50.978;11.034;2022-09-03T02:07:30;15.80;83.80
25058;DHT22;13057;50.978;11.034;2022-09-03T02:10:00;15.70;83.90
25058;DHT22;13057;50.978;11.034;2022-09-03T02:12:29;15.70;83.90
25058;DHT22;13057;50.978;11.034;2022-09-03T02:14:59;15.70;84.10
25058;DHT22;13057;50.978;11.034;2022-09-03T02:17:29;15.70;84.10
25058;DHT22;13057;50.978;11.034;2022-09-03T02:19:56;15.70;84.40
25058;DHT22;13057;50.978;11.034;2022-09-03T02:22:22;15.70;84.70
25058;DHT22;13057;50.978;11.034;2022-09-03T02:24:49;15.70;84.80
25058;DHT22;13057;50.978;11.034;2022-09-03T02:27:15;15.60;84.70
25058;DHT22;13057;50.978;11.034;2022-09-03T02:29:41;15.60;85.70
25058;DHT22;13057;50.978;11.034;2022-09-03T02:32:07;15.60;85.10
25058;DHT22;13057;50.978;11.034;2022-09-03T02:34:33;15.60;85.40
25058;DHT22;13057;50.978;11.034;2022-09-03T02:36:59;15.50;85.70
25058;DHT22;13057;50.978;11.034;2022-09-03T02:39:25;15.50;85.90
25058;DHT22;13057;50.978;11.034;2022-09-03T02:41:56;15.50;86.20
25058;DHT22;13057;50.978;11.034;2022-09-03T02:44:27;15.50;86.30
25058;DHT22;13057;50.978;11.034;2022-09-03T02:46:59;15.40;86.30
25058;DHT22;13057;50.978;11.034;2022-09-03T02:49:25;15.40;86.50
25058;DHT22;13057;50.978;11.034;2022-09-03T02:51:57;15.40;86.40
25058;DHT22;13057;50.978;11.034;2022-09-03T02:54:25;15.40;86.50
25058;DHT22;13057;50.978;11.034;2022-09-03T02:56:51;15.40;86.70
25058;DHT22;13057;50.978;11.034;2022-09-03T02:59:18;15.30;86.60
25058;DHT22;13057;50.978;11.034;2022-09-03T03:01:44;15.30;86.90
25058;DHT22;13057;50.978;11.034;2022-09-03T03:04:09;15.30;87.40
25058;DHT22;13057;50.978;11.034;2022-09-03T03:06:35;15.20;87.60
25058;DHT22;13057;50.978;11.034;2022-09-03T03:09:01;15.20;87.70
25058;DHT22;13057;50.978;11.034;2022-09-03T03:11:29;15.10;87.70
25058;DHT22;13057;50.978;11.034;2022-09-03T03:13:55;15.10;87.90
25058;DHT22;13057;50.978;11.034;2022-09-03T03:16:21;15.00;87.90
25058;DHT22;13057;50.978;11.034;2022-09-03T03:18:47;15.00;88.40
25058;DHT22;13057;50.978;11.034;2022-09-03T03:21:15;15.00;88.20
25058;DHT22;13057;50.978;11.034;2022-09-03T03:23:42;15.00;88.60
25058;DHT22;13057;50.978;11.034;2022-09-03T03:26:10;15.00;89.00
25058;DHT22;13057;50.978;11.034;2022-09-03T03:28:37;14.90;89.20
25058;DHT22;13057;50.978;11.034;2022-09-03T03:31:06;14.90;89.50
25058;DHT22;13057;50.978;11.034;2022-09-03T03:33:33;14.80;89.40
25058;DHT22;13057;50.978;11.034;2022-09-03T03:36:03;14.80;89.40
25058;DHT22;13057;50.978;11.034;2022-09-03T03:38:29;14.80;89.60
25058;DHT22;13057;50.978;11.034;2022-09-03T03:40:55;14.70;89.80
25058;DHT22;13057;50.978;11.034;2022-09-03T03:43:21;14.70;90.00
25058;DHT22;13057;50.978;11.034;2022-09-03T03:45:57;14.70;90.00
25058;DHT22;13057;50.978;11.034;2022-09-03T03:48:24;14.70;90.20
25058;DHT22;13057;50.978;11.034;2022-09-03T03:50:51;14.70;90.30
25058;DHT22;13057;50.978;11.034;2022-09-03T03:53:17;14.70;90.30
25058;DHT22;13057;50.978;11.034;2022-09-03T03:55:53;14.60;90.40
25058;DHT22;13057;50.978;11.034;2022-09-03T03:58:20;14.60;90.50
25058;DHT22;13057;50.978;11.034;2022-09-03T04:00:46;14.60;90.60
25058;DHT22;13057;50.978;11.034;2022-09-03T04:03:14;14.60;90.50
25058;DHT22;13057;50.978;11.034;2022-09-03T04:05:39;14.50;90.40
25058;DHT22;13057;50.978;11.034;2022-09-03T04:08:05;14.50;90.70
25058;DHT22;13057;50.978;11.034;2022-09-03T04:10:31;14.50;90.60
25058;DHT22;13057;50.978;11.034;2022-09-03T04:12:57;14.50;90.70
25058;DHT22;13057;50.978;11.034;2022-09-03T04:15:23;14.40;90.60
25058;DHT22;13057;50.978;11.034;2022-09-03T04:17:48;14.40;90.60
25058;DHT22;13057;50.978;11.034;2022-09-03T04:20:14;14.40;90.60
25058;DHT22;13057;50.978;11.034;2022-09-03T04:22:40;14.40;90.70
25058;DHT22;13057;50.978;11.034;2022-09-03T04:25:07;14.30;90.70
25058;DHT22;13057;50.978;11.034;2022-09-03T04:27:32;14.30;90.70
25058;DHT22;13057;50.978;11.034;2022-09-03T04:29:58;14.30;90.70
25058;DHT22;13057;50.978;11.034;2022-09-03T04:32:24;14.40;90.60
25058;DHT22;13057;50.978;11.034;2022-09-03T04:35:02;14.40;90.70
25058;DHT22;13057;50.978;11.034;2022-09-03T04:37:28;14.30;90.70
25058;DHT22;13057;50.978;11.034;2022-09-03T04:39:54;14.30;90.80
25058;DHT22;13057;50.978;11.034;2022-09-03T04:42:20;14.30;90.80
25058;DHT22;13057;50.978;11.034;2022-09-03T04:44:46;14.20;90.80
25058;DHT22;13057;50.978;11.034;2022-09-03T04:47:12;14.20;91.00
25058;DHT22;13057;50.978;11.034;2022-09-03T04:49:39;14.10;91.10
25058;DHT22;13057;50.978;11.034;2022-09-03T04:52:05;14.10;91.10
25058;DHT22;13057;50.978;11.034;2022-09-03T04:54:31;14.10;91.20
25058;DHT22;13057;50.978;11.034;2022-09-03T04:56:57;14.10;91.20
25058;DHT22;13057;50.978;11.034;2022-09-03T04:59:23;14.10;91.20
25058;DHT22;13057;50.978;11.034;2022-09-03T05:01:49;14.10;91.20
25058;DHT22;13057;50.978;11.034;2022-09-03T05:04:17;14.10;91.20
25058;DHT22;13057;50.978;11.034;2022-09-03T05:06:44;14.10;91.30
25058;DHT22;13057;50.978;11.034;2022-09-03T05:09:10;14.10;91.40
25058;DHT22;13057;50.978;11.034;2022-09-03T05:11:36;14.10;91.40
25058;DHT22;13057;50.978;11.034;2022-09-03T05:14:03;14.10;91.50
25058;DHT22;13057;50.978;11.034;2022-09-03T05:16:30;14.00;91.50
25058;DHT22;13057;50.978;11.034;2022-09-03T05:18:58;14.00;91.70
25058;DHT22;13057;50.978;11.034;2022-09-03T05:21:24;14.00;91.70
25058;DHT22;13057;50.978;11.034;2022-09-03T05:23:51;14.00;91.70
25058;DHT22;13057;50.978;11.034;2022-09-03T05:26:21;14.00;91.70
25058;DHT22;13057;50.978;11.034;2022-09-03T05:28:47;14.00;91.80
25058;DHT22;13057;50.978;11.034;2022-09-03T05:31:15;14.00;91.80
25058;DHT22;13057;50.978;11.034;2022-09-03T05:33:45;14.10;91.80
25058;DHT22;13057;50.978;11.034;2022-09-03T05:36:14;14.10;91.80
25058;DHT22;13057;50.978;11.034;2022-09-03T05:38:41;14.10;91.70
25058;DHT22;13057;50.978;11.034;2022-09-03T05:41:09;14.20;91.70
25058;DHT22;13057;50.978;11.034;2022-09-03T05:43:36;14.20;91.70
25058;DHT22;13057;50.978;11.034;2022-09-03T05:46:05;14.20;91.70
25058;DHT22;13057;50.978;11.034;2022-09-03T05:48:32;14.20;91.70
25058;DHT22;13057;50.978;11.034;2022-09-03T05:51:00;14.20;91.80
25058;DHT22;13057;50.978;11.034;2022-09-03T05:53:27;14.20;91.80
25058;DHT22;13057;50.978;11.034;2022-09-03T05:55:56;14.20;91.80
25058;DHT22;13057;50.978;11.034;2022-09-03T05:58:22;14.20;91.80
25058;DHT22;13057;50.978;11.034;2022-09-03T06:00:47;14.30;91.80
25058;DHT22;13057;50.978;11.034;2022-09-03T06:03:13;14.30;91.80
25058;DHT22;13057;50.978;11.034;2022-09-03T06:05:39;14.30;91.80
25058;DHT22;13057;50.978;11.034;2022-09-03T06:08:04;14.40;91.80
25058;DHT22;13057;50.978;11.034;2022-09-03T06:10:32;14.40;91.80
25058;DHT22;13057;50.978;11.034;2022-09-03T06:12:57;14.40;91.80
25058;DHT22;13057;50.978;11.034;2022-09-03T06:15:27;14.50;91.90
25058;DHT22;13057;50.978;11.034;2022-09-03T06:17:53;14.50;91.90
25058;DHT22;13057;50.978;11.034;2022-09-03T06:20:19;14.50;91.90
25058;DHT22;13057;50.978;11.034;2022-09-03T06:22:48;14.60;91.90
25058;DHT22;13057;50.978;11.034;2022-09-03T06:25:17;14.60;91.90
25058;DHT22;13057;50.978;11.034;2022-09-03T06:27:44;14.60;91.80
25058;DHT22;13057;50.978;11.034;2022-09-03T06:30:11;14.70;91.80
25058;DHT22;13057;50.978;11.034;2022-09-03T06:32:43;14.70;91.60
25058;DHT22;13057;50.978;11.034;2022-09-03T06:35:09;14.80;91.60
25058;DHT22;13057;50.978;11.034;2022-09-03T06:37:39;14.90;91.60
25058;DHT22;13057;50.978;11.034;2022-09-03T06:40:06;14.90;91.60
25058;DHT22;13057;50.978;11.034;2022-09-03T06:42:34;15.00;91.60
25058;DHT22;13057;50.978;11.034;2022-09-03T06:45:01;15.00;91.50
25058;DHT22;13057;50.978;11.034;2022-09-03T06:47:28;15.10;91.40
25058;DHT22;13057;50.978;11.034;2022-09-03T06:49:54;15.20;91.40
25058;DHT22;13057;50.978;11.034;2022-09-03T06:52:20;15.20;91.30
25058;DHT22;13057;50.978;11.034;2022-09-03T06:54:46;15.30;91.20
25058;DHT22;13057;50.978;11.034;2022-09-03T06:57:12;15.30;91.00
25058;DHT22;13057;50.978;11.034;2022-09-03T06:59:38;15.40;91.00
25058;DHT22;13057;50.978;11.034;2022-09-03T07:02:04;15.50;90.90
25058;DHT22;13057;50.978;11.034;2022-09-03T07:04:31;15.50;90.80
25058;DHT22;13057;50.978;11.034;2022-09-03T07:06:59;15.60;90.60
25058;DHT22;13057;50.978;11.034;2022-09-03T07:09:25;15.60;90.70
25058;DHT22;13057;50.978;11.034;2022-09-03T07:11:51;15.60;90.30
25058;DHT22;13057;50.978;11.034;2022-09-03T07:14:18;15.70;90.20
25058;DHT22;13057;50.978;11.034;2022-09-03T07:16:47;15.80;90.10
25058;DHT22;13057;50.978;11.034;2022-09-03T07:19:13;15.80;90.20
25058;DHT22;13057;50.978;11.034;2022-09-03T07:21:40;15.90;90.00
25058;DHT22;13057;50.978;11.034;2022-09-03T07:24:06;16.10;89.80
25058;DHT22;13057;50.978;11.034;2022-09-03T07:26:36;16.20;89.80
25058;DHT22;13057;50.978;11.034;2022-09-03T07:29:03;16.20;89.60
25058;DHT22;13057;50.978;11.034;2022-09-03T07:31:33;16.30;89.60
25058;DHT22;13057;50.978;11.034;2022-09-03T07:34:01;16.30;89.50
25058;DHT22;13057;50.978;11.034;2022-09-03T07:36:36;16.40;89.50
25058;DHT22;13057;50.978;11.034;2022-09-03T07:39:03;16.40;89.20
25058;DHT22;13057;50.978;11.034;2022-09-03T07:41:29;16.50;89.00
25058;DHT22;13057;50.978;11.034;2022-09-03T07:43:58;16.60;88.80
25058;DHT22;13057;50.978;11.034;2022-09-03T07:46:26;16.70;88.80
25058;DHT22;13057;50.978;11.034;2022-09-03T07:48:54;16.80;88.50
25058;DHT22;13057;50.978;11.034;2022-09-03T07:51:22;16.80;88.10
25058;DHT22;13057;50.978;11.034;2022-09-03T07:53:53;16.90;87.20
25058;DHT22;13057;50.978;11.034;2022-09-03T07:56:19;16.90;86.20
25058;DHT22;13057;50.978;11.034;2022-09-03T07:58:46;17.00;84.20
25058;DHT22;13057;50.978;11.034;2022-09-03T08:01:17;17.10;83.50
25058;DHT22;13057;50.978;11.034;2022-09-03T08:03:45;17.20;83.70
25058;DHT22;13057;50.978;11.034;2022-09-03T08:06:12;17.30;84.50
25058;DHT22;13057;50.978;11.034;2022-09-03T08:08:41;17.50;83.80
25058;DHT22;13057;50.978;11.034;2022-09-03T08:11:13;17.60;83.80
25058;DHT22;13057;50.978;11.034;2022-09-03T08:13:42;17.70;83.60
25058;DHT22;13057;50.978;11.034;2022-09-03T08:16:09;17.70;83.20
25058;DHT22;13057;50.978;11.034;2022-09-03T08:18:36;17.80;82.60
25058;DHT22;13057;50.978;11.034;2022-09-03T08:21:09;17.90;82.10
25058;DHT22;13057;50.978;11.034;2022-09-03T08:23:38;18.00;81.80
25058;DHT22;13057;50.978;11.034;2022-09-03T08:26:04;18.00;80.50
25058;DHT22;13057;50.978;11.034;2022-09-03T08:28:30;18.10;79.80
25058;DHT22;13057;50.978;11.034;2022-09-03T08:31:07;18.20;79.70
25058;DHT22;13057;50.978;11.034;2022-09-03T08:33:38;18.30;79.40
25058;DHT22;13057;50.978;11.034;2022-09-03T08:36:07;18.40;79.10
25058;DHT22;13057;50.978;11.034;2022-09-03T08:38:34;18.40;78.90
25058;DHT22;13057;50.978;11.034;2022-09-03T08:41:11;18.50;78.90
25058;DHT22;13057;50.978;11.034;2022-09-03T08:44:13;18.50;78.30
25058;DHT22;13057;50.978;11.034;2022-09-03T08:47:01;18.60;77.60
25058;DHT22;13057;50.978;11.034;2022-09-03T08:49:44;18.70;77.80
25058;DHT22;13057;50.978;11.034;2022-09-03T08:52:28;18.80;77.70
25058;DHT22;13057;50.978;11.034;2022-09-03T08:55:14;18.80;77.50
25058;DHT22;13057;50.978;11.034;2022-09-03T08:57:48;18.90;76.90
25058;DHT22;13057;50.978;11.034;2022-09-03T09:00:15;19.00;77.00
25058;DHT22;13057;50.978;11.034;2022-09-03T09:05:20;19.10;75.80
25058;DHT22;13057;50.978;11.034;2022-09-03T09:08:03;19.20;75.20
25058;DHT22;13057;50.978;11.034;2022-09-03T09:10:46;19.20;75.00
25058;DHT22;13057;50.978;11.034;2022-09-03T09:13:33;19.30;74.90
25058;DHT22;13057;50.978;11.034;2022-09-03T09:16:16;19.30;74.60
25058;DHT22;13057;50.978;11.034;2022-09-03T09:19:08;19.40;75.40
25058;DHT22;13057;50.978;11.034;2022-09-03T09:21:40;19.50;71.90
25058;DHT22;13057;50.978;11.034;2022-09-03T09:24:18;19.60;73.50
25058;DHT22;13057;50.978;11.034;2022-09-03T09:26:46;19.70;74.10
25058;DHT22;13057;50.978;11.034;2022-09-03T09:29:13;19.90;73.70
25058;DHT22;13057;50.978;11.034;2022-09-03T09:31:40;20.00;73.10
25058;DHT22;13057;50.978;11.034;2022-09-03T09:34:12;20.20;72.50
25058;DHT22;13057;50.978;11.034;2022-09-03T09:36:51;20.30;71.80
25058;DHT22;13057;50.978;11.034;2022-09-03T09:39:18;20.50;72.00
25058;DHT22;13057;50.978;11.034;2022-09-03T09:41:57;20.60;70.60
25058;DHT22;13057;50.978;11.034;2022-09-03T09:44:24;20.70;70.00
25058;DHT22;13057;50.978;11.034;2022-09-03T09:46:51;20.70;70.20
25058;DHT22;13057;50.978;11.034;2022-09-03T09:49:32;20.80;70.30
25058;DHT22;13057;50.978;11.034;2022-09-03T09:52:06;20.90;70.70
25058;DHT22;13057;50.978;11.034;2022-09-03T09:54:33;21.10;70.00
25058;DHT22;13057;50.978;11.034;2022-09-03T09:57:01;21.20;70.50
25058;DHT22;13057;50.978;11.034;2022-09-03T09:59:28;21.40;69.10
25058;DHT22;13057;50.978;11.034;2022-09-03T10:02:08;21.50;68.90
25058;DHT22;13057;50.978;11.034;2022-09-03T10:04:34;21.70;68.60
25058;DHT22;13057;50.978;11.034;2022-09-03T10:07:23;21.80;68.00
25058;DHT22;13057;50.978;11.034;2022-09-03T10:10:04;21.90;67.70
25058;DHT22;13057;50.978;11.034;2022-09-03T10:12:39;22.00;66.50
25058;DHT22;13057;50.978;11.034;2022-09-03T10:15:23;22.10;67.20
25058;DHT22;13057;50.978;11.034;2022-09-03T10:17:59;22.20;65.10
25058;DHT22;13057;50.978;11.034;2022-09-03T10:20:45;22.20;67.20
25058;DHT22;13057;50.978;11.034;2022-09-03T10:23:20;22.30;64.30
25058;DHT22;13057;50.978;11.034;2022-09-03T10:26:03;22.30;66.60
25058;DHT22;13057;50.978;11.034;2022-09-03T10:28:34;22.40;66.10
25058;DHT22;13057;50.978;11.034;2022-09-03T10:31:20;22.40;64.80
25058;DHT22;13057;50.978;11.034;2022-09-03T10:36:47;22.50;65.30
25058;DHT22;13057;50.978;11.034;2022-09-03T10:39:37;22.50;64.80
25058;DHT22;13057;50.978;11.034;2022-09-03T10:42:40;22.50;65.30
25058;DHT22;13057;50.978;11.034;2022-09-03T10:48:15;22.60;65.50
25058;DHT22;13057;50.978;11.034;2022-09-03T10:50:51;22.60;65.00
25058;DHT22;13057;50.978;11.034;2022-09-03T10:53:28;22.60;64.40
25058;DHT22;13057;50.978;11.034;2022-09-03T10:56:05;22.50;65.60
25058;DHT22;13057;50.978;11.034;2022-09-03T10:58:53;22.60;66.10
25058;DHT22;13057;50.978;11.034;2022-09-03T11:01:31;22.60;65.00
25058;DHT22;13057;50.978;11.034;2022-09-03T11:04:16;22.60;63.80
25058;DHT22;13057;50.978;11.034;2022-09-03T11:06:59;22.60;65.00
25058;DHT22;13057;50.978;11.034;2022-09-03T11:09:40;22.60;65.70
25058;DHT22;13057;50.978;11.034;2022-09-03T11:12:16;22.60;65.80
25058;DHT22;13057;50.978;11.034;2022-09-03T11:15:03;22.60;65.30
25058;DHT22;13057;50.978;11.034;2022-09-03T11:17:39;22.60;64.80
25058;DHT22;13057;50.978;11.034;2022-09-03T11:20:15;22.60;65.00
25058;DHT22;13057;50.978;11.034;2022-09-03T11:22:44;22.60;64.90
25058;DHT22;13057;50.978;11.034;2022-09-03T11:25:13;22.50;64.20
25058;DHT22;13057;50.978;11.034;2022-09-03T11:28:02;22.50;66.00
25058;DHT22;13057;50.978;11.034;2022-09-03T11:30:48;22.60;65.20
25058;DHT22;13057;50.978;11.034;2022-09-03T11:33:20;22.60;65.10
25058;DHT22;13057;50.978;11.034;2022-09-03T11:35:55;22.60;65.80
25058;DHT22;13057;50.978;11.034;2022-09-03T11:38:21;22.60;65.10
25058;DHT22;13057;50.978;11.034;2022-09-03T11:41:02;22.60;65.80
25058;DHT22;13057;50.978;11.034;2022-09-03T11:43:33;22.60;65.10
25058;DHT22;13057;50.978;11.034;2022-09-03T11:46:05;22.60;65.80
25058;DHT22;13057;50.978;11.034;2022-09-03T11:48:42;22.70;64.40
25058;DHT22;13057;50.978;11.034;2022-09-03T11:51:19;22.70;63.40
25058;DHT22;13057;50.978;11.034;2022-09-03T11:53:57;22.70;63.80
25058;DHT22;13057;50.978;11.034;2022-09-03T11:56:24;22.70;64.40
25058;DHT22;13057;50.978;11.034;2022-09-03T12:02:01;22.60;64.40
25058;DHT22;13057;50.978;11.034;2022-09-03T12:04:44;22.70;65.10
25058;DHT22;13057;50.978;11.034;2022-09-03T12:07:20;22.70;65.10
25058;DHT22;13057;50.978;11.034;2022-09-03T12:10:12;22.70;64.40
25058;DHT22;13057;50.978;11.034;2022-09-03T12:12:51;22.80;64.40
25058;DHT22;13057;50.978;11.034;2022-09-03T12:15:52;22.90;64.10
25058;DHT22;13057;50.978;11.034;2022-09-03T12:18:23;22.90;63.60
25058;DHT22;13057;50.978;11.034;2022-09-03T12:21:07;22.90;63.50
25058;DHT22;13057;50.978;11.034;2022-09-03T12:23:44;22.90;63.40
25058;DHT22;13057;50.978;11.034;2022-09-03T12:26:14;22.90;64.40
25058;DHT22;13057;50.978;11.034;2022-09-03T12:28:42;23.00;64.20
25058;DHT22;13057;50.978;11.034;2022-09-03T12:31:15;23.00;64.30
25058;DHT22;13057;50.978;11.034;2022-09-03T12:33:47;23.00;63.80
25058;DHT22;13057;50.978;11.034;2022-09-03T12:36:13;23.10;64.20
25058;DHT22;13057;50.978;11.034;2022-09-03T12:38:39;23.00;63.20
25058;DHT22;13057;50.978;11.034;2022-09-03T12:41:20;23.10;63.20
25058;DHT22;13057;50.978;11.034;2022-09-03T12:43:55;23.00;62.60
25058;DHT22;13057;50.978;11.034;2022-09-03T12:46:25;23.00;62.20
25058;DHT22;13057;50.978;11.034;2022-09-03T12:48:57;23.10;64.00
25058;DHT22;13057;50.978;11.034;2022-09-03T12:51:35;23.20;64.00
25058;DHT22;13057;50.978;11.034;2022-09-03T12:54:03;23.20;64.30
25058;DHT22;13057;50.978;11.034;2022-09-03T12:56:32;23.30;62.20
25058;DHT22;13057;50.978;11.034;2022-09-03T12:59:05;23.30;60.50
25058;DHT22;13057;50.978;11.034;2022-09-03T13:01:41;23.30;60.90
25058;DHT22;13057;50.978;11.034;2022-09-03T13:04:12;23.30;60.80
25058;DHT22;13057;50.978;11.034;2022-09-03T13:06:53;23.20;61.20
25058;DHT22;13057;50.978;11.034;2022-09-03T13:09:24;23.20;61.10
25058;DHT22;13057;50.978;11.034;2022-09-03T13:11:51;23.10;60.80
25058;DHT22;13057;50.978;11.034;2022-09-03T13:14:20;23.00;61.60
25058;DHT22;13057;50.978;11.034;2022-09-03T13:17:09;23.00;61.40
25058;DHT22;13057;50.978;11.034;2022-09-03T13:19:57;22.90;61.10
25058;DHT22;13057;50.978;11.034;2022-09-03T13:22:48;22.90;62.10
25058;DHT22;13057;50.978;11.034;2022-09-03T13:25:25;23.00;60.80
25058;DHT22;13057;50.978;11.034;2022-09-03T13:28:14;23.00;61.10
25058;DHT22;13057;50.978;11.034;2022-09-03T13:30:54;23.10;61.00
25058;DHT22;13057;50.978;11.034;2022-09-03T13:33:27;23.20;60.70
25058;DHT22;13057;50.978;11.034;2022-09-03T13:36:02;23.20;60.40
25058;DHT22;13057;50.978;11.034;2022-09-03T13:38:42;23.20;60.40
25058;DHT22;13057;50.978;11.034;2022-09-03T13:41:32;23.20;60.60
25058;DHT22;13057;50.978;11.034;2022-09-03T13:46:58;23.00;61.00
25058;DHT22;13057;50.978;11.034;2022-09-03T13:49:33;23.00;61.40
25058;DHT22;13057;50.978;11.034;2022-09-03T13:52:21;22.90;61.30
25058;DHT22;13057;50.978;11.034;2022-09-03T13:55:01;22.90;61.30
25058;DHT22;13057;50.978;11.034;2022-09-03T13:57:33;22.90;61.30
25058;DHT22;13057;50.978;11.034;2022-09-03T14:00:10;22.80;61.30
25058;DHT22;13057;50.978;11.034;2022-09-03T14:02:51;22.80;61.60
25058;DHT22;13057;50.978;11.034;2022-09-03T14:06:11;22.90;61.70
25058;DHT22;13057;50.978;11.034;2022-09-03T14:08:27;22.90;61.70
25058;DHT22;13057;50.978;11.034;2022-09-03T14:11:06;23.00;61.60
25058;DHT22;13057;50.978;11.034;2022-09-03T14:13:57;23.10;61.30
25058;DHT22;13057;50.978;11.034;2022-09-03T14:16:37;23.10;61.50
25058;DHT22;13057;50.978;11.034;2022-09-03T14:19:11;23.10;61.30
25058;DHT22;13057;50.978;11.034;2022-09-03T14:21:50;23.10;61.20
25058;DHT22;13057;50.978;11.034;2022-09-03T14:24:25;23.10;61.20
25058;DHT22;13057;50.978;11.034;2022-09-03T14:26:56;23.10;61.20
25058;DHT22;13057;50.978;11.034;2022-09-03T14:29:26;23.10;61.10
25058;DHT22;13057;50.978;11.034;2022-09-03T14:32:17;23.00;61.50
25058;DHT22;13057;50.978;11.034;2022-09-03T14:35:04;23.10;61.10
25058;DHT22;13057;50.978;11.034;2022-09-03T14:38:08;23.10;61.30
25058;DHT22;13057;50.978;11.034;2022-09-03T14:40:46;23.10;61.00
25058;DHT22;13057;50.978;11.034;2022-09-03T14:43:37;23.20;61.10
25058;DHT22;13057;50.978;11.034;2022-09-03T14:46:17;23.20;61.10
25058;DHT22;13057;50.978;11.034;2022-09-03T14:49:02;23.10;61.30
25058;DHT22;13057;50.978;11.034;2022-09-03T14:51:48;23.20;61.30
25058;DHT22;13057;50.978;11.034;2022-09-03T14:54:30;23.20;61.40
25058;DHT22;13057;50.978;11.034;2022-09-03T14:57:21;23.20;61.30
25058;DHT22;13057;50.978;11.034;2022-09-03T15:00:05;23.20;61.40
25058;DHT22;13057;50.978;11.034;2022-09-03T15:02:50;23.20;61.30
25058;DHT22;13057;50.978;11.034;2022-09-03T15:05:44;23.20;62.10
25058;DHT22;13057;50.978;11.034;2022-09-03T15:08:35;23.20;61.70
25058;DHT22;13057;50.978;11.034;2022-09-03T15:11:17;23.20;61.70
25058;DHT22;13057;50.978;11.034;2022-09-03T15:13:50;23.20;61.70
25058;DHT22;13057;50.978;11.034;2022-09-03T15:16:30;23.10;62.70
25058;DHT22;13057;50.978;11.034;2022-09-03T15:19:17;23.10;62.30
25058;DHT22;13057;50.978;11.034;2022-09-03T15:22:12;23.10;62.10
25058;DHT22;13057;50.978;11.034;2022-09-03T15:24:57;23.10;63.10
25058;DHT22;13057;50.978;11.034;2022-09-03T15:27:50;23.10;65.80
25058;DHT22;13057;50.978;11.034;2022-09-03T15:30:19;23.00;68.60
25058;DHT22;13057;50.978;11.034;2022-09-03T15:33:09;23.00;70.80
25058;DHT22;13057;50.978;11.034;2022-09-03T15:35:51;22.80;71.80
25058;DHT22;13057;50.978;11.034;2022-09-03T15:41:28;22.60;74.90
25058;DHT22;13057;50.978;11.034;2022-09-03T15:43:59;22.50;76.60
25058;DHT22;13057;50.978;11.034;2022-09-03T15:46:47;22.40;74.30
25058;DHT22;13057;50.978;11.034;2022-09-03T15:52:24;22.30;75.10
25058;DHT22;13057;50.978;11.034;2022-09-03T15:55:12;22.30;75.00
25058;DHT22;13057;50.978;11.034;2022-09-03T15:57:58;22.30;75.60
25058;DHT22;13057;50.978;11.034;2022-09-03T16:00:49;22.20;74.90
25058;DHT22;13057;50.978;11.034;2022-09-03T16:03:31;22.20;75.20
25058;DHT22;13057;50.978;11.034;2022-09-03T16:06:04;22.20;76.70
25058;DHT22;13057;50.978;11.034;2022-09-03T16:08:40;22.10;75.30
25058;DHT22;13057;50.978;11.034;2022-09-03T16:11:32;22.00;75.70
25058;DHT22;13057;50.978;11.034;2022-09-03T16:14:16;22.00;75.10
25058;DHT22;13057;50.978;11.034;2022-09-03T16:16:56;21.90;75.80
25058;DHT22;13057;50.978;11.034;2022-09-03T16:19:34;21.90;76.00
25058;DHT22;13057;50.978;11.034;2022-09-03T16:22:06;21.90;75.70
25058;DHT22;13057;50.978;11.034;2022-09-03T16:24:46;21.90;75.70
25058;DHT22;13057;50.978;11.034;2022-09-03T16:27:21;21.90;77.60
25058;DHT22;13057;50.978;11.034;2022-09-03T16:30:10;21.90;76.20
25058;DHT22;13057;50.978;11.034;2022-09-03T16:32:50;21.90;76.40
25058;DHT22;13057;50.978;11.034;2022-09-03T16:36:05;21.80;77.30